createdAt,value
2017-07-19T00:00:08.930Z,0
2017-07-19T00:00:35.075Z,0
2017-07-19T00:01:01.209Z,0
2017-07-19T00:01:27.331Z,0
2017-07-19T00:01:53.424Z,0
2017-07-19T00:02:19.589Z,0
2017-07-19T00:02:45.741Z,0
2017-07-19T00:03:11.884Z,0
2017-07-19T00:03:38.014Z,0
2017-07-19T00:04:04.170Z,0
2017-07-19T00:04:30.286Z,0
2017-07-19T00:04:56.443Z,0
2017-07-19T00:05:22.578Z,0
2017-07-19T00:05:48.699Z,0
2017-07-19T00:06:14.864Z,0
2017-07-19T00:06:41.043Z,0
2017-07-19T00:07:07.252Z,0
2017-07-19T00:07:33.378Z,0
2017-07-19T00:07:59.470Z,0
2017-07-19T00:08:25.650Z,0
2017-07-19T00:08:51.808Z,0
2017-07-19T00:09:17.921Z,0
2017-07-19T00:09:44.070Z,0
2017-07-19T00:10:10.206Z,0
2017-07-19T00:10:36.324Z,0
2017-07-19T00:11:02.490Z,0
2017-07-19T00:11:28.612Z,0
2017-07-19T00:11:54.768Z,0
2017-07-19T00:12:20.904Z,0
2017-07-19T00:12:47.019Z,0
2017-07-19T00:13:13.170Z,0
2017-07-19T00:13:39.306Z,0
2017-07-19T00:14:05.427Z,0
2017-07-19T00:14:31.550Z,0
2017-07-19T00:14:57.707Z,0
2017-07-19T00:15:23.881Z,0
2017-07-19T00:15:49.973Z,0
2017-07-19T00:16:16.084Z,0
2017-07-19T00:16:42.234Z,0
2017-07-19T00:17:08.396Z,0
2017-07-19T00:17:34.515Z,0
2017-07-19T00:18:00.612Z,0
2017-07-19T00:18:26.802Z,0
2017-07-19T00:18:52.894Z,0
2017-07-19T00:19:19.010Z,0
2017-07-19T00:19:45.146Z,0
2017-07-19T00:20:11.244Z,0
2017-07-19T00:20:37.407Z,0
2017-07-19T00:21:03.544Z,0
2017-07-19T00:21:29.699Z,0
2017-07-19T00:21:55.813Z,0
2017-07-19T00:22:21.931Z,0
2017-07-19T00:22:48.036Z,0
2017-07-19T00:23:14.223Z,0
2017-07-19T00:23:40.346Z,0
2017-07-19T00:24:06.462Z,0
2017-07-19T00:24:32.592Z,0
2017-07-19T00:24:58.747Z,0
2017-07-19T00:25:24.910Z,0
2017-07-19T00:25:51.040Z,0
2017-07-19T00:26:17.174Z,0
2017-07-19T00:26:43.360Z,0
2017-07-19T00:27:09.460Z,0
2017-07-19T00:27:35.593Z,0
2017-07-19T00:28:01.685Z,0
2017-07-19T00:28:27.865Z,0
2017-07-19T00:28:54.005Z,0
2017-07-19T00:29:20.133Z,0
2017-07-19T00:29:46.293Z,0
2017-07-19T00:30:12.431Z,0
2017-07-19T00:30:38.578Z,0
2017-07-19T00:31:04.686Z,0
2017-07-19T00:31:30.804Z,0
2017-07-19T00:31:56.928Z,0
2017-07-19T00:32:23.086Z,0
2017-07-19T00:32:49.236Z,0
2017-07-19T00:33:15.350Z,0
2017-07-19T00:33:41.514Z,0
2017-07-19T00:34:07.695Z,0
2017-07-19T00:34:33.810Z,0
2017-07-19T00:34:59.940Z,0
2017-07-19T00:35:26.065Z,0
2017-07-19T00:35:52.182Z,0
2017-07-19T00:36:18.307Z,0
2017-07-19T00:36:44.497Z,0
2017-07-19T00:37:10.610Z,0
2017-07-19T00:37:36.788Z,0
2017-07-19T00:38:02.894Z,0
2017-07-19T00:38:29.037Z,0
2017-07-19T00:38:55.182Z,0
2017-07-19T00:39:21.307Z,0
2017-07-19T00:39:47.434Z,0
2017-07-19T00:40:13.596Z,0
2017-07-19T00:40:39.733Z,0
2017-07-19T00:41:05.883Z,0
2017-07-19T00:41:32.040Z,0
2017-07-19T00:41:58.156Z,0
2017-07-19T00:42:24.329Z,0
2017-07-19T00:42:50.436Z,0
2017-07-19T00:43:16.584Z,0
2017-07-19T00:43:42.721Z,0
2017-07-19T00:44:08.888Z,0
2017-07-19T00:44:35.012Z,0
2017-07-19T00:45:01.194Z,0
2017-07-19T00:45:27.339Z,0
2017-07-19T00:45:53.463Z,0
2017-07-19T00:46:19.594Z,0
2017-07-19T00:46:45.686Z,0
2017-07-19T00:47:11.850Z,0
2017-07-19T00:47:37.983Z,0
2017-07-19T00:48:04.082Z,0
2017-07-19T00:48:30.224Z,0
2017-07-19T00:48:56.358Z,0
2017-07-19T00:49:22.486Z,0
2017-07-19T00:49:48.601Z,0
2017-07-19T00:50:14.727Z,0
2017-07-19T00:50:40.865Z,0
2017-07-19T00:51:06.976Z,0
2017-07-19T00:51:33.130Z,0
2017-07-19T00:51:59.244Z,0
2017-07-19T00:52:25.379Z,0
2017-07-19T00:52:51.480Z,0
2017-07-19T00:53:17.596Z,0
2017-07-19T00:53:43.724Z,0
2017-07-19T00:54:09.859Z,0
2017-07-19T00:54:35.999Z,0
2017-07-19T00:55:02.146Z,0
2017-07-19T00:55:28.255Z,0
2017-07-19T00:55:54.395Z,0
2017-07-19T00:56:20.525Z,0
2017-07-19T00:56:46.642Z,0
2017-07-19T00:57:12.772Z,0
2017-07-19T00:57:38.877Z,0
2017-07-19T00:58:05.014Z,0
2017-07-19T00:58:31.139Z,0
2017-07-19T00:58:57.274Z,0
2017-07-19T00:59:23.465Z,0
2017-07-19T00:59:49.637Z,0
2017-07-19T01:00:15.743Z,0
2017-07-19T01:00:41.865Z,0
2017-07-19T01:01:07.954Z,0
2017-07-19T01:01:34.059Z,0
2017-07-19T01:02:00.161Z,0
2017-07-19T01:02:26.354Z,0
2017-07-19T01:02:52.447Z,0
2017-07-19T01:03:18.566Z,0
2017-07-19T01:03:44.729Z,0
2017-07-19T01:04:10.875Z,0
2017-07-19T01:04:37.016Z,0
2017-07-19T01:05:03.125Z,0
2017-07-19T01:05:29.223Z,0
2017-07-19T01:05:55.313Z,0
2017-07-19T01:06:21.500Z,0
2017-07-19T01:06:47.600Z,0
2017-07-19T01:07:13.699Z,0
2017-07-19T01:07:39.796Z,0
2017-07-19T01:08:05.938Z,0
2017-07-19T01:08:32.076Z,0
2017-07-19T01:08:58.198Z,0
2017-07-19T01:09:24.316Z,0
2017-07-19T01:09:50.465Z,0
2017-07-19T01:10:16.565Z,0
2017-07-19T01:10:42.731Z,0
2017-07-19T01:11:08.834Z,0
2017-07-19T01:11:34.940Z,0
2017-07-19T01:12:01.104Z,0
2017-07-19T01:12:27.233Z,0
2017-07-19T01:12:53.324Z,0
2017-07-19T01:13:19.481Z,0
2017-07-19T01:13:45.581Z,0
2017-07-19T01:14:11.743Z,0
2017-07-19T01:14:37.871Z,0
2017-07-19T01:15:04.006Z,0
2017-07-19T01:15:30.093Z,0
2017-07-19T01:15:56.217Z,0
2017-07-19T01:16:22.379Z,0
2017-07-19T01:16:48.522Z,0
2017-07-19T01:17:14.644Z,0
2017-07-19T01:17:40.775Z,0
2017-07-19T01:18:06.952Z,0
2017-07-19T01:18:33.061Z,0
2017-07-19T01:18:59.220Z,0
2017-07-19T01:19:25.317Z,0
2017-07-19T01:19:51.411Z,0
2017-07-19T01:20:17.550Z,0
2017-07-19T01:20:43.705Z,0
2017-07-19T01:21:09.793Z,0
2017-07-19T01:21:35.943Z,0
2017-07-19T01:22:02.076Z,0
2017-07-19T01:22:28.192Z,0
2017-07-19T01:22:54.290Z,0
2017-07-19T01:23:20.479Z,0
2017-07-19T01:23:46.599Z,0
2017-07-19T01:24:12.788Z,0
2017-07-19T01:24:38.925Z,0
2017-07-19T01:25:05.028Z,0
2017-07-19T01:25:31.133Z,0
2017-07-19T01:25:57.246Z,0
2017-07-19T01:26:23.372Z,0
2017-07-19T01:26:49.479Z,0
2017-07-19T01:27:15.621Z,0
2017-07-19T01:27:41.762Z,0
2017-07-19T01:28:07.957Z,0
2017-07-19T01:28:34.102Z,0
2017-07-19T01:29:00.267Z,0
2017-07-19T01:29:26.452Z,0
2017-07-19T01:29:52.577Z,0
2017-07-19T01:30:18.713Z,0
2017-07-19T01:30:44.856Z,0
2017-07-19T01:31:10.953Z,0
2017-07-19T01:31:37.115Z,0
2017-07-19T01:32:03.236Z,0
2017-07-19T01:32:29.374Z,0
2017-07-19T01:32:55.484Z,0
2017-07-19T01:33:21.610Z,0
2017-07-19T01:33:47.726Z,0
2017-07-19T01:34:13.908Z,0
2017-07-19T01:34:40.009Z,0
2017-07-19T01:35:06.135Z,0
2017-07-19T01:35:32.315Z,0
2017-07-19T01:35:58.411Z,0
2017-07-19T01:36:24.570Z,0
2017-07-19T01:36:50.667Z,0
2017-07-19T01:37:16.808Z,0
2017-07-19T01:37:42.964Z,0
2017-07-19T01:38:09.096Z,0
2017-07-19T01:38:35.209Z,0
2017-07-19T01:39:01.340Z,0
2017-07-19T01:39:27.473Z,0
2017-07-19T01:39:53.609Z,0
2017-07-19T01:40:19.755Z,0
2017-07-19T01:40:45.901Z,0
2017-07-19T01:41:12.036Z,0
2017-07-19T01:41:38.166Z,0
2017-07-19T01:42:04.283Z,0
2017-07-19T01:42:30.411Z,0
2017-07-19T01:42:56.601Z,0
2017-07-19T01:43:22.742Z,0
2017-07-19T01:43:48.913Z,0
2017-07-19T01:44:15.076Z,0
2017-07-19T01:44:41.192Z,0
2017-07-19T01:45:07.310Z,0
2017-07-19T01:45:33.446Z,0
2017-07-19T01:45:59.569Z,0
2017-07-19T01:46:25.722Z,0
2017-07-19T01:46:51.857Z,0
2017-07-19T01:47:18.006Z,0
2017-07-19T01:47:44.224Z,0
2017-07-19T01:48:10.371Z,0
2017-07-19T01:48:36.492Z,0
2017-07-19T01:49:02.624Z,0
2017-07-19T01:49:28.829Z,0
2017-07-19T01:49:54.920Z,0
2017-07-19T01:50:21.029Z,0
2017-07-19T01:50:47.206Z,0
2017-07-19T01:51:13.322Z,0
2017-07-19T01:51:39.430Z,0
2017-07-19T01:52:05.576Z,0
2017-07-19T01:52:31.712Z,0
2017-07-19T01:52:57.807Z,0
2017-07-19T01:53:23.946Z,0
2017-07-19T01:53:50.082Z,0
2017-07-19T01:54:16.236Z,0
2017-07-19T01:54:42.379Z,0
2017-07-19T01:55:08.487Z,0
2017-07-19T01:55:34.669Z,0
2017-07-19T01:56:00.836Z,0
2017-07-19T01:56:27.017Z,0
2017-07-19T01:56:53.150Z,0
2017-07-19T01:57:19.266Z,0
2017-07-19T01:57:45.391Z,0
2017-07-19T01:58:11.529Z,0
2017-07-19T01:58:37.711Z,0
2017-07-19T01:59:03.815Z,0
2017-07-19T01:59:29.954Z,0
2017-07-19T01:59:56.084Z,0
2017-07-19T02:00:22.247Z,0
2017-07-19T02:00:48.381Z,0
2017-07-19T02:01:14.481Z,0
2017-07-19T02:01:40.669Z,0
2017-07-19T02:02:06.762Z,0
2017-07-19T02:02:32.879Z,0
2017-07-19T02:02:59.067Z,0
2017-07-19T02:03:25.189Z,0
2017-07-19T02:03:51.306Z,0
2017-07-19T02:04:17.468Z,0
2017-07-19T02:04:43.651Z,0
2017-07-19T02:05:09.738Z,0
2017-07-19T02:05:35.846Z,0
2017-07-19T02:06:01.972Z,0
2017-07-19T02:06:28.137Z,0
2017-07-19T02:06:54.293Z,0
2017-07-19T02:07:20.453Z,0
2017-07-19T02:07:46.564Z,0
2017-07-19T02:08:12.665Z,0
2017-07-19T02:08:38.814Z,0
2017-07-19T02:09:04.921Z,0
2017-07-19T02:09:31.019Z,0
2017-07-19T02:09:57.158Z,0
2017-07-19T02:10:23.308Z,0
2017-07-19T02:10:49.442Z,0
2017-07-19T02:11:15.553Z,0
2017-07-19T02:11:41.678Z,0
2017-07-19T02:12:07.786Z,0
2017-07-19T02:12:33.905Z,0
2017-07-19T02:13:00.025Z,0
2017-07-19T02:13:26.194Z,0
2017-07-19T02:13:52.310Z,0
2017-07-19T02:14:18.441Z,0
2017-07-19T02:14:44.558Z,0
2017-07-19T02:15:10.693Z,0
2017-07-19T02:15:36.845Z,0
2017-07-19T02:16:02.965Z,0
2017-07-19T02:16:29.156Z,0
2017-07-19T02:16:55.319Z,0
2017-07-19T02:17:21.411Z,0
2017-07-19T02:17:47.525Z,0
2017-07-19T02:18:13.636Z,0
2017-07-19T02:18:39.758Z,0
2017-07-19T02:19:05.874Z,0
2017-07-19T02:19:32.008Z,0
2017-07-19T02:19:58.124Z,0
2017-07-19T02:20:24.259Z,0
2017-07-19T02:20:50.382Z,0
2017-07-19T02:21:16.522Z,0
2017-07-19T02:21:42.661Z,0
2017-07-19T02:22:08.810Z,0
2017-07-19T02:22:34.927Z,0
2017-07-19T02:23:01.112Z,0
2017-07-19T02:23:27.267Z,0
2017-07-19T02:23:53.382Z,0
2017-07-19T02:24:19.484Z,0
2017-07-19T02:24:45.617Z,0
2017-07-19T02:25:11.763Z,0
2017-07-19T02:25:37.859Z,0
2017-07-19T02:26:03.951Z,0
2017-07-19T02:26:30.080Z,0
2017-07-19T02:26:56.181Z,0
2017-07-19T02:27:22.319Z,0
2017-07-19T02:27:48.423Z,0
2017-07-19T02:28:14.585Z,0
2017-07-19T02:28:40.674Z,0
2017-07-19T02:29:06.773Z,0
2017-07-19T02:29:32.961Z,0
2017-07-19T02:29:59.105Z,0
2017-07-19T02:30:25.275Z,0
2017-07-19T02:30:51.427Z,0
2017-07-19T02:31:17.604Z,0
2017-07-19T02:31:43.739Z,0
2017-07-19T02:32:09.902Z,0
2017-07-19T02:32:36.024Z,0
2017-07-19T02:33:02.131Z,0
2017-07-19T02:33:28.275Z,0
2017-07-19T02:33:54.419Z,0
2017-07-19T02:34:20.607Z,0
2017-07-19T02:34:46.778Z,0
2017-07-19T02:35:12.894Z,0
2017-07-19T02:35:39.032Z,0
2017-07-19T02:36:05.212Z,0
2017-07-19T02:36:31.318Z,0
2017-07-19T02:36:57.459Z,0
2017-07-19T02:37:23.556Z,0
2017-07-19T02:37:49.719Z,0
2017-07-19T02:38:15.860Z,0
2017-07-19T02:38:42.002Z,0
2017-07-19T02:39:08.222Z,0
2017-07-19T02:39:34.376Z,0
2017-07-19T02:40:00.542Z,0
2017-07-19T02:40:26.682Z,0
2017-07-19T02:40:52.832Z,0
2017-07-19T02:41:18.996Z,0
2017-07-19T02:41:45.153Z,0
2017-07-19T02:42:11.345Z,0
2017-07-19T02:42:37.505Z,0
2017-07-19T02:43:03.631Z,0
2017-07-19T02:43:29.794Z,0
2017-07-19T02:43:55.906Z,0
2017-07-19T02:44:22.031Z,0
2017-07-19T02:44:48.170Z,0
2017-07-19T02:45:14.303Z,0
2017-07-19T02:45:40.464Z,0
2017-07-19T02:46:06.577Z,0
2017-07-19T02:46:32.726Z,0
2017-07-19T02:46:58.886Z,0
2017-07-19T02:47:25.001Z,0
2017-07-19T02:47:51.147Z,0
2017-07-19T02:48:17.310Z,0
2017-07-19T02:48:43.456Z,4
2017-07-19T02:49:09.596Z,4
2017-07-19T02:49:35.757Z,4
2017-07-19T02:50:01.913Z,4
2017-07-19T02:50:28.091Z,4
2017-07-19T02:50:54.196Z,4
2017-07-19T02:51:20.352Z,4
2017-07-19T02:51:46.516Z,0
2017-07-19T02:52:12.649Z,0
2017-07-19T02:52:38.781Z,0
2017-07-19T02:53:04.927Z,4
2017-07-19T02:53:31.110Z,4
2017-07-19T02:53:57.218Z,4
2017-07-19T02:54:23.350Z,4
2017-07-19T02:54:49.478Z,4
2017-07-19T02:55:15.594Z,4
2017-07-19T02:55:41.723Z,8
2017-07-19T02:56:07.830Z,4
2017-07-19T02:56:33.992Z,4
2017-07-19T02:57:00.094Z,4
2017-07-19T02:57:26.228Z,8
2017-07-19T02:57:52.320Z,8
2017-07-19T02:58:18.486Z,4
2017-07-19T02:58:44.610Z,4
2017-07-19T02:59:10.715Z,8
2017-07-19T02:59:36.875Z,8
2017-07-19T03:00:03.011Z,4
2017-07-19T03:00:29.137Z,8
2017-07-19T03:00:55.325Z,8
2017-07-19T03:01:21.443Z,12
2017-07-19T03:01:47.616Z,8
2017-07-19T03:02:13.832Z,12
2017-07-19T03:02:39.982Z,8
2017-07-19T03:03:06.121Z,12
2017-07-19T03:03:32.287Z,16
2017-07-19T03:03:58.467Z,12
2017-07-19T03:04:24.671Z,16
2017-07-19T03:04:50.812Z,16
2017-07-19T03:05:16.934Z,16
2017-07-19T03:05:43.093Z,16
2017-07-19T03:06:09.271Z,16
2017-07-19T03:06:35.436Z,20
2017-07-19T03:07:01.570Z,20
2017-07-19T03:07:27.723Z,20
2017-07-19T03:07:53.863Z,24
2017-07-19T03:08:19.971Z,24
2017-07-19T03:08:46.126Z,24
2017-07-19T03:09:12.290Z,24
2017-07-19T03:09:38.391Z,28
2017-07-19T03:10:04.481Z,28
2017-07-19T03:10:30.590Z,32
2017-07-19T03:10:56.714Z,32
2017-07-19T03:11:22.854Z,36
2017-07-19T03:11:49.011Z,36
2017-07-19T03:12:15.111Z,36
2017-07-19T03:12:41.226Z,40
2017-07-19T03:13:07.331Z,44
2017-07-19T03:13:33.437Z,44
2017-07-19T03:13:59.548Z,44
2017-07-19T03:14:25.724Z,52
2017-07-19T03:14:51.885Z,52
2017-07-19T03:15:18.032Z,56
2017-07-19T03:15:44.158Z,60
2017-07-19T03:16:10.249Z,64
2017-07-19T03:16:36.376Z,64
2017-07-19T03:17:02.513Z,68
2017-07-19T03:17:28.677Z,72
2017-07-19T03:17:54.847Z,76
2017-07-19T03:18:21.014Z,80
2017-07-19T03:18:47.148Z,84
2017-07-19T03:19:13.318Z,88
2017-07-19T03:19:39.502Z,92
2017-07-19T03:20:05.623Z,100
2017-07-19T03:20:31.762Z,104
2017-07-19T03:20:57.891Z,108
2017-07-19T03:21:23.989Z,116
2017-07-19T03:21:50.153Z,120
2017-07-19T03:22:16.295Z,128
2017-07-19T03:22:42.443Z,132
2017-07-19T03:23:08.579Z,140
2017-07-19T03:23:34.724Z,144
2017-07-19T03:24:00.832Z,152
2017-07-19T03:24:26.925Z,156
2017-07-19T03:24:53.023Z,164
2017-07-19T03:25:19.161Z,172
2017-07-19T03:25:45.298Z,180
2017-07-19T03:26:11.427Z,184
2017-07-19T03:26:37.576Z,192
2017-07-19T03:27:03.705Z,200
2017-07-19T03:27:29.846Z,204
2017-07-19T03:27:56.012Z,212
2017-07-19T03:28:22.162Z,220
2017-07-19T03:28:48.302Z,224
2017-07-19T03:29:14.489Z,232
2017-07-19T03:29:40.644Z,240
2017-07-19T03:30:06.760Z,252
2017-07-19T03:30:32.937Z,256
2017-07-19T03:30:59.071Z,268
2017-07-19T03:31:25.207Z,276
2017-07-19T03:31:51.356Z,280
2017-07-19T03:32:17.490Z,296
2017-07-19T03:32:43.657Z,304
2017-07-19T03:33:09.781Z,312
2017-07-19T03:33:35.994Z,324
2017-07-19T03:34:02.161Z,332
2017-07-19T03:34:28.250Z,344
2017-07-19T03:34:54.386Z,356
2017-07-19T03:35:20.513Z,372
2017-07-19T03:35:46.624Z,380
2017-07-19T03:36:12.785Z,396
2017-07-19T03:36:38.990Z,408
2017-07-19T03:37:05.128Z,424
2017-07-19T03:37:31.283Z,436
2017-07-19T03:37:57.424Z,448
2017-07-19T03:38:23.591Z,464
2017-07-19T03:38:49.763Z,480
2017-07-19T03:39:15.901Z,492
2017-07-19T03:39:42.009Z,508
2017-07-19T03:40:08.164Z,524
2017-07-19T03:40:34.308Z,536
2017-07-19T03:41:00.431Z,552
2017-07-19T03:41:26.563Z,568
2017-07-19T03:41:52.676Z,580
2017-07-19T03:42:18.802Z,596
2017-07-19T03:42:44.965Z,612
2017-07-19T03:43:11.083Z,628
2017-07-19T03:43:37.211Z,648
2017-07-19T03:44:03.351Z,664
2017-07-19T03:44:29.529Z,680
2017-07-19T03:44:55.612Z,700
2017-07-19T03:45:21.774Z,716
2017-07-19T03:45:47.899Z,732
2017-07-19T03:46:14.004Z,748
2017-07-19T03:46:40.094Z,764
2017-07-19T03:47:06.217Z,784
2017-07-19T03:47:32.374Z,800
2017-07-19T03:47:58.496Z,820
2017-07-19T03:48:24.636Z,840
2017-07-19T03:48:50.768Z,860
2017-07-19T03:49:16.869Z,880
2017-07-19T03:49:43.005Z,904
2017-07-19T03:50:09.140Z,928
2017-07-19T03:50:35.262Z,952
2017-07-19T03:51:01.368Z,972
2017-07-19T03:51:27.514Z,996
2017-07-19T03:51:53.630Z,1016
2017-07-19T03:52:19.971Z,1044
2017-07-19T03:52:46.125Z,1068
2017-07-19T03:53:12.312Z,1092
2017-07-19T03:53:38.493Z,1120
2017-07-19T03:54:04.623Z,1144
2017-07-19T03:54:30.747Z,1172
2017-07-19T03:54:56.870Z,1200
2017-07-19T03:55:23.010Z,1232
2017-07-19T03:55:49.199Z,1260
2017-07-19T03:56:15.355Z,1288
2017-07-19T03:56:41.496Z,1320
2017-07-19T03:57:07.648Z,1352
2017-07-19T03:57:33.775Z,1384
2017-07-19T03:57:59.891Z,1420
2017-07-19T03:58:26.069Z,1452
2017-07-19T03:58:52.255Z,1492
2017-07-19T03:59:18.370Z,1524
2017-07-19T03:59:44.520Z,1564
2017-07-19T04:00:10.664Z,1596
2017-07-19T04:00:36.850Z,1636
2017-07-19T04:01:03.037Z,1672
2017-07-19T04:01:29.197Z,1704
2017-07-19T04:01:55.323Z,1740
2017-07-19T04:02:21.485Z,1772
2017-07-19T04:02:47.599Z,1804
2017-07-19T04:03:13.697Z,1840
2017-07-19T04:03:39.810Z,1876
2017-07-19T04:04:05.927Z,1904
2017-07-19T04:04:32.094Z,1936
2017-07-19T04:04:58.230Z,1964
2017-07-19T04:05:24.375Z,1988
2017-07-19T04:05:50.533Z,2012
2017-07-19T04:06:16.668Z,2028
2017-07-19T04:06:42.824Z,2052
2017-07-19T04:07:08.985Z,2080
2017-07-19T04:07:35.130Z,2108
2017-07-19T04:08:01.276Z,2136
2017-07-19T04:08:27.462Z,2164
2017-07-19T04:08:53.633Z,2192
2017-07-19T04:09:19.775Z,2224
2017-07-19T04:09:45.912Z,2252
2017-07-19T04:10:12.094Z,2276
2017-07-19T04:10:38.210Z,2304
2017-07-19T04:11:04.347Z,2324
2017-07-19T04:11:30.442Z,2348
2017-07-19T04:11:56.632Z,2380
2017-07-19T04:12:22.780Z,2416
2017-07-19T04:12:48.921Z,2460
2017-07-19T04:13:15.085Z,2508
2017-07-19T04:13:41.264Z,2568
2017-07-19T04:14:07.357Z,2620
2017-07-19T04:14:33.515Z,2676
2017-07-19T04:14:59.644Z,2732
2017-07-19T04:15:25.759Z,2784
2017-07-19T04:15:51.891Z,2832
2017-07-19T04:16:18.052Z,2872
2017-07-19T04:16:44.189Z,2912
2017-07-19T04:17:10.320Z,2944
2017-07-19T04:17:36.513Z,2972
2017-07-19T04:18:02.652Z,3004
2017-07-19T04:18:28.771Z,3036
2017-07-19T04:18:54.904Z,3072
2017-07-19T04:19:20.998Z,3120
2017-07-19T04:19:47.090Z,3164
2017-07-19T04:20:13.227Z,3212
2017-07-19T04:20:39.379Z,3264
2017-07-19T04:21:05.493Z,3312
2017-07-19T04:21:31.646Z,3360
2017-07-19T04:21:57.801Z,3400
2017-07-19T04:22:23.949Z,3432
2017-07-19T04:22:50.095Z,3472
2017-07-19T04:23:16.211Z,3500
2017-07-19T04:23:42.400Z,3528
2017-07-19T04:24:08.551Z,3560
2017-07-19T04:24:34.709Z,3588
2017-07-19T04:25:00.845Z,3620
2017-07-19T04:25:26.975Z,3648
2017-07-19T04:25:53.092Z,3680
2017-07-19T04:26:19.244Z,3712
2017-07-19T04:26:45.407Z,3744
2017-07-19T04:27:11.542Z,3764
2017-07-19T04:27:37.644Z,3780
2017-07-19T04:28:03.792Z,3780
2017-07-19T04:28:29.975Z,3772
2017-07-19T04:28:56.103Z,3764
2017-07-19T04:29:22.221Z,3752
2017-07-19T04:29:48.371Z,3748
2017-07-19T04:30:14.530Z,3752
2017-07-19T04:30:40.666Z,3756
2017-07-19T04:31:06.838Z,3764
2017-07-19T04:31:32.969Z,3780
2017-07-19T04:31:59.086Z,3800
2017-07-19T04:32:25.208Z,3828
2017-07-19T04:32:51.342Z,3860
2017-07-19T04:33:17.492Z,3892
2017-07-19T04:33:43.649Z,3924
2017-07-19T04:34:09.788Z,3964
2017-07-19T04:34:35.889Z,4008
2017-07-19T04:35:02.026Z,4056
2017-07-19T04:35:28.140Z,4104
2017-07-19T04:35:54.261Z,4144
2017-07-19T04:36:20.422Z,4172
2017-07-19T04:36:46.648Z,4192
2017-07-19T04:37:12.812Z,4212
2017-07-19T04:37:38.974Z,4228
2017-07-19T04:38:05.125Z,4248
2017-07-19T04:38:31.285Z,4276
2017-07-19T04:38:57.391Z,4308
2017-07-19T04:39:23.509Z,4348
2017-07-19T04:39:49.698Z,4384
2017-07-19T04:40:15.817Z,4416
2017-07-19T04:40:41.933Z,4440
2017-07-19T04:41:08.100Z,4464
2017-07-19T04:41:34.252Z,4480
2017-07-19T04:42:00.370Z,4500
2017-07-19T04:42:26.557Z,4512
2017-07-19T04:42:52.662Z,4532
2017-07-19T04:43:18.798Z,4548
2017-07-19T04:43:44.900Z,4572
2017-07-19T04:44:11.006Z,4612
2017-07-19T04:44:37.128Z,4656
2017-07-19T04:45:03.252Z,4720
2017-07-19T04:45:29.394Z,4796
2017-07-19T04:45:55.551Z,4872
2017-07-19T04:46:21.706Z,4952
2017-07-19T04:46:47.798Z,5032
2017-07-19T04:47:13.902Z,5120
2017-07-19T04:47:40.090Z,5208
2017-07-19T04:48:06.205Z,5300
2017-07-19T04:48:32.354Z,5384
2017-07-19T04:48:58.489Z,5468
2017-07-19T04:49:24.635Z,5544
2017-07-19T04:49:50.758Z,5636
2017-07-19T04:50:16.932Z,5720
2017-07-19T04:50:43.067Z,5808
2017-07-19T04:51:09.203Z,5904
2017-07-19T04:51:35.345Z,5992
2017-07-19T04:52:01.493Z,6080
2017-07-19T04:52:27.627Z,6172
2017-07-19T04:52:53.768Z,6276
2017-07-19T04:53:19.937Z,6400
2017-07-19T04:53:46.101Z,6528
2017-07-19T04:54:12.271Z,6700
2017-07-19T04:54:38.385Z,7168
2017-07-19T04:55:04.494Z,8048
2017-07-19T04:55:30.646Z,8736
2017-07-19T04:55:56.775Z,9076
2017-07-19T04:56:22.916Z,9156
2017-07-19T04:56:49.063Z,8848
2017-07-19T04:57:15.170Z,8436
2017-07-19T04:57:41.293Z,8028
2017-07-19T04:58:07.406Z,7764
2017-07-19T04:58:33.570Z,7732
2017-07-19T04:58:59.695Z,7716
2017-07-19T04:59:25.857Z,7700
2017-07-19T04:59:51.993Z,7700
2017-07-19T05:00:18.148Z,7716
2017-07-19T05:00:44.312Z,7724
2017-07-19T05:01:10.438Z,7736
2017-07-19T05:01:36.655Z,7744
2017-07-19T05:02:02.792Z,7756
2017-07-19T05:02:28.963Z,7756
2017-07-19T05:02:55.151Z,7768
2017-07-19T05:03:21.270Z,7804
2017-07-19T05:03:47.366Z,7848
2017-07-19T05:04:13.501Z,7884
2017-07-19T05:04:39.649Z,7916
2017-07-19T05:05:05.739Z,7948
2017-07-19T05:05:31.875Z,7976
2017-07-19T05:05:58.085Z,8004
2017-07-19T05:06:24.254Z,8016
2017-07-19T05:06:50.361Z,8056
2017-07-19T05:07:16.480Z,8108
2017-07-19T05:07:42.642Z,8132
2017-07-19T05:08:08.766Z,8176
2017-07-19T05:08:34.882Z,8192
2017-07-19T05:09:00.992Z,8188
2017-07-19T05:09:27.088Z,8208
2017-07-19T05:09:53.226Z,8248
2017-07-19T05:10:19.357Z,8284
2017-07-19T05:10:45.515Z,8352
2017-07-19T05:11:11.630Z,8428
2017-07-19T05:11:37.761Z,8488
2017-07-19T05:12:03.924Z,8524
2017-07-19T05:12:30.020Z,8576
2017-07-19T05:12:56.145Z,8628
2017-07-19T05:13:22.259Z,8656
2017-07-19T05:13:48.392Z,8676
2017-07-19T05:14:14.533Z,8688
2017-07-19T05:14:40.612Z,8716
2017-07-19T05:15:06.767Z,8748
2017-07-19T05:15:32.876Z,8772
2017-07-19T05:15:58.990Z,8788
2017-07-19T05:16:25.200Z,8804
2017-07-19T05:16:51.391Z,8824
2017-07-19T05:17:17.611Z,8832
2017-07-19T05:17:43.734Z,8824
2017-07-19T05:18:09.859Z,8812
2017-07-19T05:18:35.989Z,8780
2017-07-19T05:19:02.121Z,8776
2017-07-19T05:19:28.262Z,8784
2017-07-19T05:19:54.387Z,8784
2017-07-19T05:20:20.495Z,8796
2017-07-19T05:20:46.588Z,8808
2017-07-19T05:21:12.734Z,8840
2017-07-19T05:21:38.840Z,8872
2017-07-19T05:22:04.936Z,8916
2017-07-19T05:22:31.050Z,8968
2017-07-19T05:22:57.161Z,9028
2017-07-19T05:23:23.316Z,9088
2017-07-19T05:23:49.483Z,9124
2017-07-19T05:24:15.588Z,9156
2017-07-19T05:24:41.716Z,9224
2017-07-19T05:25:07.856Z,9296
2017-07-19T05:25:33.983Z,9352
2017-07-19T05:26:00.121Z,9400
2017-07-19T05:26:26.259Z,9476
2017-07-19T05:26:52.384Z,9552
2017-07-19T05:27:18.569Z,9600
2017-07-19T05:27:44.710Z,9640
2017-07-19T05:28:10.882Z,9708
2017-07-19T05:28:36.991Z,9772
2017-07-19T05:29:03.137Z,9852
2017-07-19T05:29:29.316Z,9936
2017-07-19T05:29:55.428Z,10020
2017-07-19T05:30:21.529Z,10112
2017-07-19T05:30:47.692Z,10224
2017-07-19T05:31:13.807Z,10336
2017-07-19T05:31:39.927Z,10452
2017-07-19T05:32:06.059Z,10576
2017-07-19T05:32:32.183Z,10672
2017-07-19T05:32:58.345Z,10756
2017-07-19T05:33:24.456Z,10848
2017-07-19T05:33:50.553Z,10964
2017-07-19T05:34:16.716Z,11064
2017-07-19T05:34:42.826Z,11140
2017-07-19T05:35:08.942Z,11204
2017-07-19T05:35:35.104Z,11388
2017-07-19T05:36:01.228Z,11676
2017-07-19T05:36:27.320Z,11860
2017-07-19T05:36:53.430Z,11988
2017-07-19T05:37:19.526Z,12104
2017-07-19T05:37:45.643Z,12200
2017-07-19T05:38:11.828Z,12276
2017-07-19T05:38:37.958Z,12304
2017-07-19T05:39:04.101Z,12380
2017-07-19T05:39:30.228Z,12456
2017-07-19T05:39:56.389Z,12504
2017-07-19T05:40:22.534Z,12532
2017-07-19T05:40:48.689Z,12532
2017-07-19T05:41:14.830Z,12528
2017-07-19T05:41:41.019Z,12524
2017-07-19T05:42:07.205Z,12512
2017-07-19T05:42:33.349Z,12476
2017-07-19T05:42:59.551Z,12408
2017-07-19T05:43:25.696Z,12288
2017-07-19T05:43:51.864Z,12124
2017-07-19T05:44:17.998Z,11940
2017-07-19T05:44:44.203Z,11796
2017-07-19T05:45:10.347Z,11676
2017-07-19T05:45:36.493Z,11544
2017-07-19T05:46:02.602Z,11568
2017-07-19T05:46:28.777Z,11696
2017-07-19T05:46:54.946Z,11860
2017-07-19T05:47:21.107Z,12036
2017-07-19T05:47:47.243Z,12204
2017-07-19T05:48:13.385Z,12384
2017-07-19T05:48:39.544Z,12484
2017-07-19T05:49:05.674Z,12468
2017-07-19T05:49:31.839Z,12432
2017-07-19T05:49:57.990Z,12364
2017-07-19T05:50:24.151Z,12296
2017-07-19T05:50:50.285Z,12200
2017-07-19T05:51:16.413Z,12132
2017-07-19T05:51:42.557Z,12088
2017-07-19T05:52:08.694Z,12032
2017-07-19T05:52:34.822Z,11980
2017-07-19T05:53:00.960Z,11920
2017-07-19T05:53:27.063Z,11828
2017-07-19T05:53:53.172Z,11712
2017-07-19T05:54:19.338Z,11604
2017-07-19T05:54:45.437Z,11488
2017-07-19T05:55:11.574Z,11392
2017-07-19T05:55:37.746Z,11308
2017-07-19T05:56:03.893Z,11220
2017-07-19T05:56:30.003Z,11148
2017-07-19T05:56:56.355Z,11092
2017-07-19T05:57:22.488Z,11064
2017-07-19T05:57:48.579Z,11044
2017-07-19T05:58:14.703Z,11080
2017-07-19T05:58:40.867Z,11160
2017-07-19T05:59:06.972Z,11216
2017-07-19T05:59:33.095Z,11296
2017-07-19T05:59:59.231Z,11400
2017-07-19T06:00:25.432Z,11412
2017-07-19T06:00:51.596Z,11396
2017-07-19T06:01:17.763Z,11472
2017-07-19T06:01:43.917Z,11608
2017-07-19T06:02:10.078Z,11712
2017-07-19T06:02:36.185Z,11828
2017-07-19T06:03:02.281Z,11960
2017-07-19T06:03:28.469Z,12112
2017-07-19T06:03:54.617Z,12276
2017-07-19T06:04:20.758Z,12400
2017-07-19T06:04:46.923Z,12548
2017-07-19T06:05:13.129Z,12700
2017-07-19T06:05:39.252Z,12840
2017-07-19T06:06:05.401Z,12936
2017-07-19T06:06:31.532Z,13024
2017-07-19T06:06:57.622Z,13088